createdAt,value
2022-09-27T00:01:09.545Z,54.50
2022-09-27T00:03:36.509Z,54.00
2022-09-27T00:06:11.486Z,54.20
2022-09-27T00:08:41.032Z,54.40
2022-09-27T00:11:27.996Z,54.10
2022-09-27T00:13:58.995Z,53.70
2022-09-27T00:16:35.295Z,53.70
2022-09-27T00:19:05.268Z,53.80
2022-09-27T00:21:32.431Z,53.70
2022-09-27T00:23:59.582Z,53.70
2022-09-27T00:26:26.606Z,53.70
2022-09-27T00:28:54.079Z,53.70
2022-09-27T00:31:24.161Z,53.70
2022-09-27T00:33:53.368Z,53.70
2022-09-27T00:36:21.909Z,53.70
2022-09-27T00:38:49.219Z,53.70
2022-09-27T00:41:21.619Z,53.70
2022-09-27T00:43:51.168Z,53.60
2022-09-27T00:46:34.289Z,53.60
2022-09-27T00:49:23.183Z,53.90
2022-09-27T00:51:56.096Z,53.60
2022-09-27T00:54:26.613Z,53.60
2022-09-27T00:56:59.066Z,53.60
2022-09-27T00:59:51.174Z,53.60
2022-09-27T01:02:18.687Z,53.60
2022-09-27T01:04:53.465Z,53.60
2022-09-27T01:07:20.285Z,53.60
2022-09-27T01:09:47.572Z,53.60
2022-09-27T01:12:29.363Z,53.60
2022-09-27T01:15:24.497Z,53.60
2022-09-27T01:18:17.674Z,53.50
2022-09-27T01:20:49.995Z,53.50
2022-09-27T01:23:39.224Z,53.60
2022-09-27T01:26:43.576Z,53.60
2022-09-27T01:29:29.325Z,53.60
2022-09-27T01:32:23.092Z,53.60
2022-09-27T01:35:02.002Z,53.60
2022-09-27T01:37:50.798Z,53.60
2022-09-27T01:40:32.787Z,53.60
2022-09-27T01:43:13.529Z,53.60
2022-09-27T01:45:47.894Z,53.50
2022-09-27T01:48:24.058Z,53.60
2022-09-27T01:51:14.611Z,53.60
2022-09-27T01:53:45.963Z,53.50
2022-09-27T01:56:22.330Z,53.40
2022-09-27T01:59:02.538Z,52.90
2022-09-27T02:01:35.946Z,52.80
2022-09-27T02:04:09.608Z,52.70
2022-09-27T02:06:43.779Z,52.50
2022-09-27T02:09:17.988Z,52.20
2022-09-27T02:11:56.435Z,51.90
2022-09-27T02:14:54.488Z,52.00
2022-09-27T02:17:46.113Z,51.70
2022-09-27T02:20:26.122Z,51.50
2022-09-27T02:22:59.391Z,51.70
2022-09-27T02:25:38.197Z,51.20
2022-09-27T02:28:47.644Z,51.20
2022-09-27T02:31:16.988Z,51.10
2022-09-27T02:33:55.365Z,50.80
2022-09-27T02:36:22.756Z,50.80
2022-09-27T02:38:51.988Z,51.00
2022-09-27T02:41:21.523Z,50.70
2022-09-27T02:43:53.387Z,50.80
2022-09-27T02:46:29.916Z,50.70
2022-09-27T02:49:44.164Z,50.80
2022-09-27T02:52:27.004Z,50.40
2022-09-27T02:55:21.435Z,50.50
2022-09-27T02:58:19.403Z,51.40
2022-09-27T03:00:59.593Z,50.90
2022-09-27T03:04:04.334Z,50.80
2022-09-27T03:06:38.359Z,50.90
2022-09-27T03:09:05.295Z,50.70
2022-09-27T03:11:33.440Z,50.90
2022-09-27T03:14:08.958Z,51.00
2022-09-27T03:16:36.298Z,50.80
2022-09-27T03:19:03.304Z,51.00
2022-09-27T03:21:30.055Z,51.10
2022-09-27T03:23:59.231Z,51.10
2022-09-27T03:26:28.251Z,50.90
2022-09-27T03:28:55.241Z,51.10
2022-09-27T03:31:27.095Z,51.20
2022-09-27T03:33:54.031Z,50.70
2022-09-27T03:36:23.139Z,50.70
2022-09-27T03:38:50.116Z,50.80
2022-09-27T03:41:19.071Z,50.70
2022-09-27T03:43:45.861Z,50.80
2022-09-27T03:46:12.745Z,50.90
2022-09-27T03:48:39.680Z,50.90
2022-09-27T03:51:09.592Z,51.20
2022-09-27T03:53:36.596Z,51.90
2022-09-27T03:56:06.213Z,52.10
2022-09-27T03:58:32.968Z,52.20
2022-09-27T04:01:02.356Z,52.10
2022-09-27T04:03:29.362Z,52.60
2022-09-27T04:05:56.256Z,53.00
2022-09-27T04:08:23.139Z,53.30
2022-09-27T04:10:52.023Z,53.30
2022-09-27T04:13:18.812Z,53.40
2022-09-27T04:15:49.831Z,54.00
2022-09-27T04:18:18.706Z,54.00
2022-09-27T04:20:45.500Z,54.40
2022-09-27T04:23:18.055Z,55.00
2022-09-27T04:25:44.863Z,54.90
2022-09-27T04:28:12.157Z,55.00
2022-09-27T04:30:39.282Z,55.60
2022-09-27T04:33:06.058Z,55.90
2022-09-27T04:35:53.954Z,56.00
2022-09-27T04:38:23.942Z,56.30
2022-09-27T04:40:53.362Z,56.50
2022-09-27T04:43:20.258Z,57.20
2022-09-27T04:45:47.124Z,57.40
2022-09-27T04:48:18.570Z,58.10
2022-09-27T04:50:45.338Z,58.80
2022-09-27T04:53:17.754Z,58.70
2022-09-27T04:55:48.980Z,59.00
2022-09-27T04:58:16.173Z,59.80
2022-09-27T05:00:43.246Z,60.10
2022-09-27T05:03:12.581Z,60.20
2022-09-27T05:05:39.434Z,61.00
2022-09-27T05:08:06.184Z,61.70
2022-09-27T05:10:33.536Z,62.40
2022-09-27T05:13:04.998Z,62.40
2022-09-27T05:15:31.886Z,63.10
2022-09-27T05:17:59.191Z,63.00
2022-09-27T05:20:26.048Z,63.30
2022-09-27T05:22:53.025Z,63.20
2022-09-27T05:25:19.893Z,63.80
2022-09-27T05:27:47.214Z,64.00
2022-09-27T05:30:14.108Z,63.90
2022-09-27T05:32:44.667Z,64.40
2022-09-27T05:35:17.710Z,65.00
2022-09-27T05:37:50.811Z,65.80
2022-09-27T05:42:50.405Z,66.50
2022-09-27T05:45:18.059Z,67.40
2022-09-27T05:47:52.368Z,68.20
2022-09-27T05:50:21.537Z,68.20
2022-09-27T05:52:49.256Z,68.20
2022-09-27T05:55:16.375Z,68.30
2022-09-27T05:57:43.462Z,69.30
2022-09-27T06:00:10.591Z,69.30
2022-09-27T06:02:37.498Z,68.60
2022-09-27T06:05:04.810Z,68.30
2022-09-27T06:07:38.600Z,67.70
2022-09-27T06:10:08.164Z,68.70
2022-09-27T06:12:37.016Z,68.90
2022-09-27T06:15:06.724Z,69.50
2022-09-27T06:17:37.431Z,69.40
2022-09-27T06:20:04.893Z,69.30
2022-09-27T06:22:33.780Z,69.60
2022-09-27T06:25:00.806Z,69.40
2022-09-27T06:27:27.787Z,70.40
2022-09-27T06:29:55.987Z,69.60
2022-09-27T06:32:22.941Z,69.30
2022-09-27T06:34:52.385Z,69.40
2022-09-27T06:37:19.213Z,69.40
2022-09-27T06:39:49.298Z,69.60
2022-09-27T06:42:18.651Z,69.60
2022-09-27T06:44:50.223Z,70.10
2022-09-27T06:47:17.901Z,69.70
2022-09-27T06:49:44.989Z,69.90
2022-09-27T06:52:11.835Z,69.60
2022-09-27T06:54:38.671Z,69.50
2022-09-27T06:57:05.992Z,69.60
2022-09-27T06:59:51.408Z,69.50
2022-09-27T07:02:18.905Z,69.00
2022-09-27T07:04:45.854Z,69.40
2022-09-27T07:07:15.052Z,69.60
2022-09-27T07:09:42.910Z,69.60
2022-09-27T07:12:13.382Z,69.40
2022-09-27T07:14:40.285Z,69.50
2022-09-27T07:17:07.250Z,69.90
2022-09-27T07:19:34.376Z,68.60
2022-09-27T07:22:01.216Z,68.80
2022-09-27T07:24:28.066Z,68.20
2022-09-27T07:26:54.960Z,68.10
2022-09-27T07:29:21.800Z,68.20
2022-09-27T07:31:48.687Z,67.70
2022-09-27T07:34:18.204Z,67.10
2022-09-27T07:36:45.142Z,67.80
2022-09-27T07:39:12.026Z,67.30
2022-09-27T07:41:40.420Z,67.40
2022-09-27T07:44:08.388Z,67.10
2022-09-27T07:46:37.495Z,67.50
2022-09-27T07:49:06.802Z,67.70
2022-09-27T07:51:34.074Z,67.00
2022-09-27T07:54:08.506Z,67.10
2022-09-27T07:56:35.805Z,67.90
2022-09-27T07:59:02.706Z,67.80
2022-09-27T08:01:29.589Z,68.10
2022-09-27T08:03:58.604Z,67.80
2022-09-27T08:06:25.396Z,67.50
2022-09-27T08:08:52.207Z,67.30
2022-09-27T08:11:19.294Z,66.40
2022-09-27T08:13:46.586Z,65.90
2022-09-27T08:16:18.314Z,66.60
2022-09-27T08:18:45.200Z,67.00
2022-09-27T08:21:12.082Z,66.30
2022-09-27T08:23:38.884Z,66.20
2022-09-27T08:26:05.859Z,66.60
2022-09-27T08:28:32.700Z,67.00
2022-09-27T08:31:01.826Z,66.90
2022-09-27T08:33:33.519Z,67.10
2022-09-27T08:36:04.188Z,66.20
2022-09-27T08:38:31.070Z,66.60
2022-09-27T08:41:12.674Z,67.40
2022-09-27T08:44:02.703Z,67.50
2022-09-27T08:46:47.963Z,67.60
2022-09-27T08:49:23.757Z,68.00
2022-09-27T08:51:53.884Z,67.80
2022-09-27T08:54:25.451Z,67.10
2022-09-27T08:56:55.095Z,67.00
2022-09-27T08:59:27.389Z,66.40
2022-09-27T09:01:54.963Z,66.80
2022-09-27T09:04:51.146Z,67.00
2022-09-27T09:07:23.133Z,67.30
2022-09-27T09:10:46.107Z,66.50
2022-09-27T09:13:24.841Z,66.70
2022-09-27T09:16:16.168Z,66.80
2022-09-27T09:19:28.043Z,66.50
2022-09-27T09:22:04.192Z,65.70
2022-09-27T09:24:52.463Z,65.70
2022-09-27T09:27:31.099Z,65.60
2022-09-27T09:30:19.739Z,64.30
2022-09-27T09:33:01.854Z,65.40
2022-09-27T09:35:41.537Z,65.60
2022-09-27T09:38:44.153Z,65.10
2022-09-27T09:41:23.979Z,65.30
2022-09-27T09:44:01.097Z,64.70
2022-09-27T09:46:41.099Z,63.30
2022-09-27T09:49:19.647Z,64.00
2022-09-27T09:51:52.722Z,63.20
2022-09-27T09:54:46.575Z,63.30
2022-09-27T09:57:35.863Z,63.10
2022-09-27T10:00:17.994Z,63.10
2022-09-27T10:02:46.707Z,63.00
2022-09-27T10:05:25.285Z,63.70
2022-09-27T10:07:56.384Z,62.90
2022-09-27T10:10:23.520Z,63.30
2022-09-27T10:12:53.231Z,64.10
2022-09-27T10:15:23.760Z,63.20
2022-09-27T10:17:56.462Z,63.20
2022-09-27T10:20:43.928Z,62.00
2022-09-27T10:23:15.913Z,60.20
2022-09-27T10:25:57.825Z,59.20
2022-09-27T10:28:44.708Z,58.90
2022-09-27T10:31:21.620Z,58.70
2022-09-27T10:33:59.665Z,59.60
2022-09-27T10:36:32.104Z,57.80
2022-09-27T10:39:06.614Z,56.50
2022-09-27T10:41:44.472Z,56.50
2022-09-27T10:44:20.144Z,55.70
2022-09-27T10:46:50.535Z,55.50
2022-09-27T10:49:31.656Z,55.90
2022-09-27T10:52:06.777Z,55.20
2022-09-27T10:54:39.743Z,54.50
2022-09-27T10:57:16.151Z,52.40
2022-09-27T10:59:46.967Z,52.30
2022-09-27T11:02:24.546Z,51.30
2022-09-27T11:05:31.573Z,48.00
2022-09-27T11:08:23.195Z,46.20
2022-09-27T11:11:15.908Z,46.00
2022-09-27T11:13:57.450Z,47.00
2022-09-27T11:16:37.135Z,48.40
2022-09-27T11:19:41.282Z,49.30
2022-09-27T11:22:55.162Z,50.40
2022-09-27T11:25:44.692Z,51.80
2022-09-27T11:28:50.804Z,53.60
2022-09-27T11:31:57.701Z,54.60
2022-09-27T11:34:36.602Z,55.80
2022-09-27T11:37:24.513Z,57.00
2022-09-27T11:39:54.352Z,57.00
2022-09-27T11:42:39.417Z,57.60
2022-09-27T11:45:34.309Z,58.80
2022-09-27T11:48:16.968Z,58.60
2022-09-27T11:51:31.423Z,59.00
2022-09-27T11:54:22.717Z,59.70
2022-09-27T11:57:18.744Z,60.50
2022-09-27T12:00:24.959Z,63.20
2022-09-27T12:03:15.332Z,70.00
2022-09-27T12:05:58.094Z,73.50
2022-09-27T12:08:44.234Z,75.60
2022-09-27T12:11:28.218Z,78.60
2022-09-27T12:14:02.547Z,78.10
2022-09-27T12:16:31.733Z,80.80
2022-09-27T12:19:01.192Z,83.10
2022-09-27T12:21:33.413Z,83.30
2022-09-27T12:24:01.580Z,85.00
2022-09-27T12:26:43.964Z,86.50
2022-09-27T12:29:34.144Z,87.30
2022-09-27T12:32:20.600Z,87.30
2022-09-27T12:34:50.226Z,88.80
2022-09-27T12:37:25.363Z,88.60
2022-09-27T12:40:06.496Z,85.30
2022-09-27T12:42:50.323Z,87.90
2022-09-27T12:45:21.658Z,81.90
2022-09-27T12:47:59.929Z,78.80
2022-09-27T12:50:44.916Z,77.30
2022-09-27T12:54:05.868Z,75.50
2022-09-27T12:56:53.555Z,71.30
2022-09-27T12:59:34.390Z,67.90
2022-09-27T13:02:24.153Z,67.10
2022-09-27T13:04:56.799Z,60.70
2022-09-27T13:07:42.890Z,57.20
2022-09-27T13:10:27.069Z,57.60
2022-09-27T13:12:58.122Z,58.20
2022-09-27T13:15:35.102Z,47.60
2022-09-27T13:18:08.119Z,48.80
2022-09-27T13:20:34.858Z,49.20
2022-09-27T13:23:22.698Z,50.70
2022-09-27T13:25:56.723Z,53.90
2022-09-27T13:28:32.199Z,53.40
2022-09-27T13:31:08.234Z,55.60
2022-09-27T13:33:53.635Z,51.40
2022-09-27T13:36:33.609Z,51.80
2022-09-27T13:39:17.648Z,53.70
2022-09-27T13:41:50.365Z,55.30
2022-09-27T13:44:29.488Z,56.60
2022-09-27T13:47:06.683Z,58.60
2022-09-27T13:50:13.626Z,60.00
2022-09-27T13:52:46.533Z,60.90
2022-09-27T13:55:45.892Z,63.10
2022-09-27T13:58:30.248Z,63.00
2022-09-27T14:01:03.491Z,61.90
2022-09-27T14:03:33.112Z,61.90
2022-09-27T14:06:08.782Z,60.70
2022-09-27T14:08:44.649Z,61.00
2022-09-27T14:11:15.530Z,60.10
2022-09-27T14:13:44.868Z,58.10
2022-09-27T14:16:16.033Z,56.70
2022-09-27T14:18:55.166Z,56.60
2022-09-27T14:21:36.945Z,56.50
2022-09-27T14:24:28.546Z,57.60
2022-09-27T14:27:34.516Z,58.60
2022-09-27T14:30:23.314Z,58.30
2022-09-27T14:33:01.883Z,50.20
2022-09-27T14:35:49.909Z,42.30
2022-09-27T14:38:37.149Z,33.70
2022-09-27T14:41:08.006Z,31.00
2022-09-27T14:43:36.780Z,34.50
2022-09-27T14:46:07.533Z,35.30
2022-09-27T14:48:35.850Z,38.40
2022-09-27T14:51:14.459Z,42.90
2022-09-27T14:53:48.138Z,45.00
2022-09-27T14:56:22.724Z,46.70
2022-09-27T14:59:07.494Z,49.20
2022-09-27T15:01:35.178Z,50.40
2022-09-27T15:04:10.964Z,52.00
2022-09-27T15:06:38.742Z,52.40
2022-09-27T15:09:07.276Z,53.20
2022-09-27T15:11:36.923Z,54.80
2022-09-27T15:14:11.700Z,55.50
2022-09-27T15:16:39.047Z,56.50
2022-09-27T15:19:29.383Z,57.10
2022-09-27T15:21:59.673Z,57.40
2022-09-27T15:24:47.391Z,58.30
2022-09-27T15:27:25.531Z,57.80
2022-09-27T15:29:55.622Z,57.80
2022-09-27T15:32:24.970Z,57.90
2022-09-27T15:34:52.423Z,58.70
2022-09-27T15:37:33.635Z,58.50
2022-09-27T15:40:20.727Z,59.00
2022-09-27T15:42:59.364Z,59.10
2022-09-27T15:45:30.385Z,58.80
2022-09-27T15:48:11.112Z,58.50
2022-09-27T15:50:38.598Z,58.70
2022-09-27T15:53:06.951Z,58.80
2022-09-27T15:55:43.053Z,59.70
2022-09-27T15:58:24.259Z,60.60
2022-09-27T16:01:05.729Z,61.40
2022-09-27T16:03:37.751Z,61.60
2022-09-27T16:06:04.779Z,60.80
2022-09-27T16:08:34.673Z,60.20
2022-09-27T16:11:05.527Z,60.60
2022-09-27T16:13:33.309Z,60.60
2022-09-27T16:16:02.089Z,60.80
2022-09-27T16:18:30.917Z,58.80
2022-09-27T16:20:58.915Z,61.30
2022-09-27T16:23:25.818Z,60.10
2022-09-27T16:25:53.586Z,59.90
2022-09-27T16:28:20.609Z,59.50
2022-09-27T16:30:48.290Z,59.30
2022-09-27T16:33:15.264Z,59.20
2022-09-27T16:35:42.155Z,59.60
2022-09-27T16:38:09.335Z,59.60
2022-09-27T16:40:37.178Z,60.30
2022-09-27T16:43:07.178Z,60.90
2022-09-27T16:45:37.587Z,61.20
2022-09-27T16:48:04.500Z,61.90
2022-09-27T16:50:52.430Z,62.50
2022-09-27T16:53:22.243Z,62.90
2022-09-27T16:55:49.036Z,62.90
2022-09-27T16:58:15.867Z,62.80
2022-09-27T17:00:43.303Z,63.30
2022-09-27T17:03:10.517Z,63.80
2022-09-27T17:05:37.298Z,63.50
2022-09-27T17:08:06.569Z,64.20
2022-09-27T17:10:35.714Z,64.60
2022-09-27T17:13:02.608Z,64.80
2022-09-27T17:15:29.609Z,65.50
2022-09-27T17:17:56.381Z,65.70
2022-09-27T17:20:27.576Z,65.80
2022-09-27T17:22:54.498Z,66.20
2022-09-27T17:25:23.478Z,66.60
2022-09-27T17:27:50.240Z,67.10
2022-09-27T17:30:20.953Z,67.90
2022-09-27T17:32:47.707Z,67.50
2022-09-27T17:35:14.462Z,67.50
2022-09-27T17:37:41.390Z,68.40
2022-09-27T17:40:08.395Z,68.00
2022-09-27T17:42:37.299Z,68.50
2022-09-27T17:45:06.883Z,68.50
2022-09-27T17:47:52.200Z,69.30
2022-09-27T17:50:25.138Z,68.60
2022-09-27T17:52:53.633Z,69.00
2022-09-27T17:55:26.977Z,68.80
2022-09-27T17:57:53.826Z,68.90
2022-09-27T18:00:21.105Z,69.40
2022-09-27T18:02:50.590Z,70.00
2022-09-27T18:05:21.067Z,70.10
2022-09-27T18:07:47.916Z,70.10
2022-09-27T18:10:16.709Z,70.20
2022-09-27T18:12:43.469Z,71.00
2022-09-27T18:15:10.480Z,71.30
2022-09-27T18:17:37.341Z,71.30
2022-09-27T18:20:07.470Z,71.60
2022-09-27T18:22:39.058Z,71.60
2022-09-27T18:25:06.642Z,71.70
2022-09-27T18:27:34.608Z,71.80
2022-09-27T18:30:03.449Z,71.70
2022-09-27T18:32:30.203Z,71.60
2022-09-27T18:34:57.028Z,71.50
2022-09-27T18:37:23.889Z,71.30
2022-09-27T18:39:50.606Z,71.30
2022-09-27T18:42:17.329Z,71.80
2022-09-27T18:44:46.433Z,71.80
2022-09-27T18:47:15.799Z,72.00
2022-09-27T18:49:42.590Z,72.60
2022-09-27T18:52:09.539Z,72.70
2022-09-27T18:54:40.414Z,73.40
2022-09-27T18:57:09.671Z,73.90
2022-09-27T18:59:36.502Z,73.30
2022-09-27T19:02:05.939Z,72.30
2022-09-27T19:04:37.364Z,72.30
2022-09-27T19:07:04.191Z,71.90
2022-09-27T19:09:31.356Z,73.30
2022-09-27T19:11:58.355Z,73.30
2022-09-27T19:14:25.414Z,74.10
2022-09-27T19:16:52.179Z,74.70
2022-09-27T19:19:20.084Z,75.00
2022-09-27T19:21:50.015Z,75.70
2022-09-27T19:24:19.525Z,75.60
2022-09-27T19:26:49.975Z,75.70
2022-09-27T19:29:17.032Z,74.60
2022-09-27T19:31:46.365Z,74.70
2022-09-27T19:34:15.502Z,74.60
2022-09-27T19:36:42.267Z,73.80
2022-09-27T19:39:09.154Z,73.70
2022-09-27T19:41:36.055Z,73.60
2022-09-27T19:44:03.073Z,73.00
2022-09-27T19:46:29.878Z,73.00
2022-09-27T19:48:58.862Z,73.10
2022-09-27T19:51:31.156Z,73.00
2022-09-27T19:53:57.946Z,73.00
2022-09-27T19:56:25.430Z,72.70
2022-09-27T19:58:52.558Z,72.10
2022-09-27T20:01:24.476Z,71.60
2022-09-27T20:03:53.403Z,71.60
2022-09-27T20:06:21.576Z,70.90
2022-09-27T20:08:48.820Z,71.10
2022-09-27T20:11:23.507Z,71.00
2022-09-27T20:13:55.004Z,71.30
2022-09-27T20:16:24.271Z,71.20
2022-09-27T20:18:53.693Z,71.00
2022-09-27T20:21:22.407Z,70.80
2022-09-27T20:23:51.589Z,70.60
2022-09-27T20:26:20.386Z,70.70
2022-09-27T20:28:49.912Z,71.00
2022-09-27T20:31:22.859Z,71.30
2022-09-27T20:33:52.513Z,71.70
2022-09-27T20:36:28.337Z,72.10
2022-09-27T20:39:12.191Z,72.50
2022-09-27T20:41:43.931Z,72.60
2022-09-27T20:44:16.420Z,72.10
2022-09-27T20:46:44.333Z,72.20
2022-09-27T20:49:18.686Z,72.50
2022-09-27T20:51:51.275Z,72.50
2022-09-27T20:54:18.488Z,72.50
2022-09-27T20:56:48.922Z,72.60
2022-09-27T20:59:18.734Z,72.10
2022-09-27T21:01:47.465Z,71.90
2022-09-27T21:04:16.859Z,71.60
2022-09-27T21:06:46.543Z,71.30
2022-09-27T21:09:19.755Z,71.00
2022-09-27T21:11:48.417Z,70.70
2022-09-27T21:14:15.720Z,70.70
2022-09-27T21:16:42.663Z,70.50
2022-09-27T21:19:09.882Z,70.30
2022-09-27T21:21:38.802Z,70.10
2022-09-27T21:24:05.720Z,70.50
2022-09-27T21:26:35.986Z,70.80
2022-09-27T21:29:08.478Z,70.80
2022-09-27T21:31:38.690Z,70.30
2022-09-27T21:34:06.002Z,70.10
2022-09-27T21:36:35.050Z,69.60
2022-09-27T21:39:02.259Z,69.20
2022-09-27T21:41:29.317Z,68.50
2022-09-27T21:43:57.404Z,68.40
2022-09-27T21:46:27.626Z,68.00
2022-09-27T21:49:01.816Z,68.00
2022-09-27T21:51:34.190Z,67.90
2022-09-27T21:54:04.836Z,67.70
2022-09-27T21:56:35.807Z,67.80
2022-09-27T21:59:02.632Z,67.70
2022-09-27T22:01:34.418Z,67.80
2022-09-27T22:04:03.925Z,67.70
2022-09-27T22:06:33.250Z,67.80
2022-09-27T22:09:01.371Z,67.60
2022-09-27T22:11:33.271Z,67.70
2022-09-27T22:14:00.808Z,67.50
2022-09-27T22:16:28.694Z,67.60
2022-09-27T22:18:58.732Z,67.70
2022-09-27T22:21:31.351Z,68.20
2022-09-27T22:24:07.477Z,68.40
2022-09-27T22:26:39.064Z,69.00
2022-09-27T22:29:06.880Z,69.50
2022-09-27T22:31:34.073Z,70.60
2022-09-27T22:34:05.444Z,70.90
2022-09-27T22:36:35.793Z,70.90
2022-09-27T22:39:02.604Z,70.40
2022-09-27T22:41:32.132Z,70.50
2022-09-27T22:43:59.002Z,70.20
2022-09-27T22:46:25.919Z,70.30
2022-09-27T22:48:52.883Z,70.60
2022-09-27T22:51:20.555Z,71.20
2022-09-27T22:53:49.824Z,72.00
2022-09-27T22:56:19.193Z,72.10
2022-09-27T22:58:47.702Z,72.70
2022-09-27T23:01:22.919Z,73.10
2022-09-27T23:03:55.739Z,73.50
2022-09-27T23:06:23.269Z,73.80
2022-09-27T23:08:51.404Z,74.40
2022-09-27T23:11:20.144Z,74.60
2022-09-27T23:13:49.067Z,75.10
2022-09-27T23:16:21.262Z,75.40
2022-09-27T23:18:48.235Z,75.50
2022-09-27T23:21:16.037Z,75.40
2022-09-27T23:23:47.630Z,75.20
2022-09-27T23:26:17.900Z,74.50
2022-09-27T23:28:44.943Z,73.60
2022-09-27T23:31:17.144Z,73.20
2022-09-27T23:33:48.836Z,72.90
2022-09-27T23:36:18.741Z,72.70
2022-09-27T23:38:46.994Z,72.70
2022-09-27T23:41:15.362Z,72.50
2022-09-27T23:43:45.730Z,71.70
2022-09-27T23:46:15.431Z,71.50
2022-09-27T23:48:42.615Z,71.30
2022-09-27T23:51:11.473Z,71.20
2022-09-27T23:53:39.601Z,70.90
2022-09-27T23:56:18.595Z,70.60
2022-09-27T23:58:46.288Z,70.30
